Time;durP1;ratioP1;P1;durP2;ratioP2;P2;SDS_P1;SDS_P2;PMS_P1;PMS_P2;Temp;Humidity;BMP_temperature;BMP_pressure;BME280_temperature;BME280_humidity;BME280_pressure;Samples;Min_cycle;Max_cycle;Signal;HPM_P1;HPM_P2
2021/11/16 00:00:46;;;;;;;33.22;13.15;;;;;;;5.04;100.00;101870.47;5039048;28;20144;-72
2021/11/16 00:03:15;;;;;;;34.38;14.35;;;;;;;5.08;100.00;101871.13;5041380;28;20052;-72
2021/11/16 00:05:43;;;;;;;36.45;12.00;;;;;;;5.06;100.00;101871.22;5042761;28;20046;-72
2021/11/16 00:08:11;;;;;;;33.78;12.70;;;;;;;5.10;100.00;101871.84;5040134;28;20047;-72
2021/11/16 00:10:39;;;;;;;35.47;10.23;;;;;;;5.14;100.00;101873.34;5044503;28;20276;-72
2021/11/16 00:13:11;;;;;;;31.70;12.23;;;;;;;5.11;100.00;101865.63;5041861;28;20384;-72
2021/11/16 00:15:40;;;;;;;35.45;12.35;;;;;;;4.97;100.00;101863.88;5044385;28;20041;-71
2021/11/16 00:18:08;;;;;;;33.72;13.30;;;;;;;5.05;100.00;101856.28;5037910;28;20059;-72
2021/11/16 00:20:41;;;;;;;31.60;13.43;;;;;;;5.06;100.00;101857.13;5044899;28;20044;-72
2021/11/16 00:23:15;;;;;;;34.35;11.07;;;;;;;5.06;100.00;101854.47;5044081;28;20126;-72
2021/11/16 00:25:43;;;;;;;36.45;12.82;;;;;;;4.90;100.00;101846.69;5042041;28;20052;-72
2021/11/16 00:28:12;;;;;;;56.63;23.08;;;;;;;4.98;100.00;101845.22;5036743;28;20099;-72
2021/11/16 00:30:41;;;;;;;31.10;12.27;;;;;;;4.98;100.00;101839.09;5039920;28;20049;-72
2021/11/16 00:33:09;;;;;;;42.83;16.55;;;;;;;5.00;100.00;101835.41;5043006;28;20045;-71
2021/11/16 00:35:38;;;;;;;35.25;14.13;;;;;;;5.01;100.00;101828.31;5043491;28;20048;-71
2021/11/16 00:38:08;;;;;;;34.28;13.35;;;;;;;5.04;100.00;101829.91;5040286;28;20091;-72
2021/11/16 00:40:37;;;;;;;33.88;12.93;;;;;;;4.99;100.00;101825.75;5042697;28;20041;-71
2021/11/16 00:43:07;;;;;;;39.42;15.05;;;;;;;5.02;100.00;101824.72;5040306;28;20045;-71
2021/11/16 00:45:38;;;;;;;38.92;14.98;;;;;;;4.97;100.00;101816.22;5043772;28;20363;-72
2021/11/16 00:48:07;;;;;;;42.95;16.58;;;;;;;5.02;100.00;101813.25;5042011;28;20367;-71
2021/11/16 00:50:37;;;;;;;51.67;19.23;;;;;;;5.06;100.00;101814.75;5043785;28;20048;-71
2021/11/16 00:53:05;;;;;;;34.47;13.23;;;;;;;5.08;100.00;101808.41;5043762;28;20049;-72
2021/11/16 00:55:33;;;;;;;34.25;15.23;;;;;;;5.04;100.00;101812.22;5042793;28;20456;-72
2021/11/16 00:58:02;;;;;;;40.28;15.90;;;;;;;5.03;100.00;101813.16;5039806;28;20563;-72
2021/11/16 01:00:30;;;;;;;30.50;12.48;;;;;;;5.11;100.00;101808.19;5042015;28;20040;-72
2021/11/16 01:03:00;;;;;;;34.22;13.48;;;;;;;5.08;100.00;101804.94;5039773;28;20047;-71
2021/11/16 01:05:28;;;;;;;34.60;15.00;;;;;;;4.97;100.00;101810.94;5041072;28;20435;-71
2021/11/16 01:07:56;;;;;;;30.08;12.35;;;;;;;5.02;100.00;101813.25;5040506;28;20052;-71
2021/11/16 01:10:24;;;;;;;31.13;12.80;;;;;;;5.09;100.00;101820.72;5039845;28;20459;-71
2021/11/16 01:12:52;;;;;;;33.00;13.30;;;;;;;5.09;100.00;101814.53;5043008;28;20068;-71
2021/11/16 01:15:21;;;;;;;40.38;17.67;;;;;;;5.09;100.00;101807.47;5044121;28;20045;-71
2021/11/16 01:17:50;;;;;;;50.47;23.02;;;;;;;5.08;100.00;101803.13;5037689;28;20040;-71
2021/11/16 01:20:20;;;;;;;40.40;16.40;;;;;;;5.10;100.00;101806.53;5039264;28;20127;-71
2021/11/16 01:22:50;;;;;;;33.95;13.70;;;;;;;5.09;100.00;101803.94;5042068;28;20075;-71
2021/11/16 01:25:20;;;;;;;34.42;14.57;;;;;;;5.07;100.00;101806.69;5042455;28;20057;-71
2021/11/16 01:27:48;;;;;;;34.53;13.80;;;;;;;5.06;100.00;101798.88;5039275;28;20056;-71
2021/11/16 01:30:20;;;;;;;38.90;14.85;;;;;;;5.04;100.00;101812.22;5041681;28;20041;-71
2021/11/16 01:32:52;;;;;;;30.17;12.35;;;;;;;4.95;100.00;101811.03;5039528;28;20420;-71
2021/11/16 01:35:21;;;;;;;31.17;12.80;;;;;;;5.06;100.00;101805.03;5042799;28;20095;-71
2021/11/16 01:37:49;;;;;;;35.42;13.50;;;;;;;5.17;100.00;101810.44;5037806;28;20048;-71
2021/11/16 01:40:19;;;;;;;32.42;13.40;;;;;;;5.15;100.00;101814.16;5043380;28;20397;-71
2021/11/16 01:42:51;;;;;;;43.17;18.55;;;;;;;5.12;100.00;101804.59;5039382;28;20057;-72
2021/11/16 01:45:20;;;;;;;41.25;18.13;;;;;;;5.06;100.00;101801.50;5040560;28;20053;-71
2021/11/16 01:47:49;;;;;;;40.25;15.98;;;;;;;5.09;100.00;101799.53;5037021;28;20053;-71
2021/11/16 01:50:22;;;;;;;35.45;14.55;;;;;;;5.18;100.00;101798.03;5038856;28;20045;-71
2021/11/16 01:52:51;;;;;;;43.00;17.08;;;;;;;5.14;100.00;101796.56;5042994;28;20045;-71
2021/11/16 01:55:22;;;;;;;34.45;13.18;;;;;;;4.94;100.00;101797.91;5042487;28;20110;-71
2021/11/16 01:57:51;;;;;;;43.08;15.60;;;;;;;4.81;100.00;101805.81;5041347;28;20037;-70
2021/11/16 02:00:21;;;;;;;32.10;14.23;;;;;;;4.79;100.00;101805.03;5042319;28;20045;-70
2021/11/16 02:02:49;;;;;;;37.95;15.10;;;;;;;4.82;100.00;101800.41;5040158;28;20095;-71
2021/11/16 02:05:17;;;;;;;38.92;14.30;;;;;;;4.97;100.00;101795.88;5041863;28;20049;-71
2021/11/16 02:07:49;;;;;;;37.15;13.38;;;;;;;5.06;100.00;101796.22;5039764;28;20049;-70
2021/11/16 02:10:17;;;;;;;32.28;13.35;;;;;;;4.93;100.00;101805.00;5041975;28;20041;-70
2021/11/16 02:12:45;;;;;;;33.70;13.23;;;;;;;4.86;100.00;101802.84;5040514;28;20053;-71
2021/11/16 02:15:12;;;;;;;35.15;12.85;;;;;;;4.83;100.00;101812.72;5038510;28;20091;-71
2021/11/16 02:17:43;;;;;;;33.97;12.98;;;;;;;5.10;100.00;101803.88;5036961;28;20057;-71
2021/11/16 02:20:12;;;;;;;42.40;14.88;;;;;;;4.94;100.00;101800.53;5038139;28;20049;-71
2021/11/16 02:22:41;;;;;;;33.58;13.80;;;;;;;5.14;100.00;101796.56;5040697;28;20037;-71
2021/11/16 02:25:10;;;;;;;42.47;16.08;;;;;;;5.23;100.00;101800.38;5042736;28;20205;-70
2021/11/16 02:27:38;;;;;;;42.95;18.90;;;;;;;5.10;100.00;101801.22;5034401;28;20041;-70
2021/11/16 02:30:07;;;;;;;34.55;14.20;;;;;;;5.12;100.00;101794.00;5040972;28;20049;-71
2021/11/16 02:32:35;;;;;;;32.42;13.18;;;;;;;5.02;100.00;101792.06;5034757;28;20386;-71
2021/11/16 02:35:04;;;;;;;37.50;12.70;;;;;;;4.88;100.00;101790.38;5042934;28;20052;-71
2021/11/16 02:37:33;;;;;;;39.03;14.30;;;;;;;4.77;100.00;101791.09;5036501;28;20037;-71
2021/11/16 02:40:04;;;;;;;32.70;13.27;;;;;;;4.82;100.00;101791.63;5040198;28;20053;-70
2021/11/16 02:42:34;;;;;;;33.95;13.95;;;;;;;4.79;100.00;101792.69;5038919;28;20033;-71
2021/11/16 02:45:03;;;;;;;28.63;12.48;;;;;;;4.80;100.00;101791.72;5040991;28;20052;-71
2021/11/16 02:47:31;;;;;;;35.35;13.80;;;;;;;5.03;100.00;101786.69;5039779;28;20406;-71
2021/11/16 02:49:59;;;;;;;30.85;13.00;;;;;;;5.04;100.00;101790.19;5042437;28;20146;-70
2021/11/16 02:52:28;;;;;;;34.67;13.30;;;;;;;5.22;100.00;101794.25;5036550;28;20120;-71
2021/11/16 02:54:56;;;;;;;33.03;11.60;;;;;;;4.96;100.00;101780.09;5042493;28;20383;-70
2021/11/16 02:57:25;;;;;;;34.75;12.82;;;;;;;4.96;100.00;101782.75;5035108;28;20045;-71
2021/11/16 02:59:54;;;;;;;35.28;13.77;;;;;;;4.87;100.00;101786.88;5040555;28;20334;-71
2021/11/16 03:02:22;;;;;;;33.63;13.07;;;;;;;4.93;100.00;101782.97;5039031;28;20033;-70
2021/11/16 03:04:50;;;;;;;38.10;14.20;;;;;;;4.93;100.00;101789.13;5040792;28;20128;-71
2021/11/16 03:07:31;;;;;;;32.53;14.32;;;;;;;5.01;100.00;101785.94;5041419;28;20037;-71
2021/11/16 03:09:59;;;;;;;34.67;12.80;;;;;;;4.89;100.00;101784.09;5037162;28;20056;-71
2021/11/16 03:12:30;;;;;;;32.47;14.10;;;;;;;4.87;100.00;101784.22;5038941;28;20445;-70
2021/11/16 03:14:58;;;;;;;34.28;12.82;;;;;;;4.85;100.00;101785.25;5039455;28;20055;-71
2021/11/16 03:17:27;;;;;;;36.00;13.63;;;;;;;4.87;100.00;101781.56;5033030;28;20079;-70
2021/11/16 03:19:56;;;;;;;41.72;14.60;;;;;;;4.69;100.00;101775.69;5041214;28;20045;-70
2021/11/16 03:22:27;;;;;;;38.00;13.32;;;;;;;4.62;100.00;101779.69;5037000;28;20095;-71
2021/11/16 03:24:56;;;;;;;34.85;13.50;;;;;;;4.72;100.00;101778.16;5040093;28;20049;-71
2021/11/16 03:27:29;;;;;;;45.65;15.07;;;;;;;4.83;100.00;101775.66;5038617;28;20338;-70
2021/11/16 03:29:59;;;;;;;38.15;13.70;;;;;;;4.75;100.00;101775.31;5044274;28;20106;-70
2021/11/16 03:32:31;;;;;;;39.67;15.27;;;;;;;4.72;100.00;101775.50;5044448;28;20473;-70
2021/11/16 03:35:00;;;;;;;36.88;13.98;;;;;;;4.96;100.00;101772.16;5044671;28;20037;-71
2021/11/16 03:37:35;;;;;;;34.75;14.57;;;;;;;4.95;100.00;101767.84;5045695;28;20049;-70
2021/11/16 03:40:04;;;;;;;38.60;14.20;;;;;;;4.97;100.00;101764.09;5041690;28;20048;-70
2021/11/16 03:42:32;;;;;;;29.80;14.00;;;;;;;5.00;100.00;101761.28;5039075;28;20041;-70
2021/11/16 03:45:02;;;;;;;34.58;14.45;;;;;;;5.11;100.00;101759.69;5043049;28;20045;-70
2021/11/16 03:47:29;;;;;;;35.58;13.27;;;;;;;5.12;100.00;101762.25;5037826;28;20095;-70
2021/11/16 03:49:57;;;;;;;33.55;14.93;;;;;;;5.05;100.00;101755.66;5044476;28;20053;-71
2021/11/16 03:52:26;;;;;;;33.33;13.32;;;;;;;5.04;100.00;101753.97;5045551;28;20479;-71
2021/11/16 03:54:54;;;;;;;36.25;14.88;;;;;;;5.14;100.00;101765.63;5043559;28;20314;-71
2021/11/16 03:57:23;;;;;;;34.72;15.40;;;;;;;5.03;100.00;101757.56;5040448;28;20091;-71
2021/11/16 03:59:51;;;;;;;39.08;15.55;;;;;;;4.73;100.00;101755.19;5043475;28;20041;-70
2021/11/16 04:02:20;;;;;;;40.90;16.17;;;;;;;4.70;100.00;101760.69;5044081;28;20049;-70
2021/11/16 04:04:53;;;;;;;37.42;14.50;;;;;;;4.75;100.00;101754.13;5037891;28;20048;-71
2021/11/16 04:07:21;;;;;;;34.88;13.30;;;;;;;4.83;100.00;101757.13;5043140;28;20102;-71
2021/11/16 04:09:49;;;;;;;36.50;14.85;;;;;;;4.58;100.00;101773.78;5041644;28;20594;-70
2021/11/16 04:12:17;;;;;;;40.35;14.23;;;;;;;4.66;100.00;101775.91;5041356;28;20059;-70
2021/11/16 04:14:46;;;;;;;37.45;13.95;;;;;;;4.74;100.00;101776.25;5041762;28;20053;-70
2021/11/16 04:17:14;;;;;;;38.85;15.65;;;;;;;4.68;100.00;101779.31;5037680;28;20126;-70
2021/11/16 04:19:44;;;;;;;41.65;14.65;;;;;;;4.60;100.00;101782.44;5042694;28;20131;-70
2021/11/16 04:22:12;;;;;;;38.67;15.23;;;;;;;4.52;100.00;101783.91;5040524;28;20046;-70
2021/11/16 04:24:40;;;;;;;46.58;16.80;;;;;;;4.48;100.00;101778.81;5042907;28;20053;-70
2021/11/16 04:27:08;;;;;;;45.10;18.05;;;;;;;4.51;100.00;101788.34;5041372;28;20068;-70
2021/11/16 04:29:36;;;;;;;46.30;17.23;;;;;;;4.55;100.00;101781.91;5039378;28;20439;-70
2021/11/16 04:32:04;;;;;;;52.13;19.05;;;;;;;4.50;100.00;101778.72;5043531;28;20052;-70
2021/11/16 04:34:32;;;;;;;47.65;17.35;;;;;;;4.49;100.00;101784.94;5037756;28;20041;-71
2021/11/16 04:37:01;;;;;;;48.92;16.45;;;;;;;4.47;100.00;101786.84;5041025;28;20322;-71
2021/11/16 04:39:29;;;;;;;50.72;16.65;;;;;;;4.43;100.00;101791.47;5043371;28;20052;-70
2021/11/16 04:41:57;;;;;;;46.63;16.80;;;;;;;4.45;100.00;101783.44;5045850;28;20087;-70
2021/11/16 04:44:25;;;;;;;48.95;18.13;;;;;;;4.46;100.00;101791.28;5042180;28;20328;-70
2021/11/16 04:46:53;;;;;;;50.42;19.00;;;;;;;4.45;100.00;101776.38;5041150;28;20057;-70
2021/11/16 04:49:25;;;;;;;48.40;17.92;;;;;;;4.45;100.00;101772.84;5039511;28;20049;-70
2021/11/16 04:52:14;;;;;;;48.47;16.25;;;;;;;4.46;100.00;101779.84;5043368;28;20055;-70
2021/11/16 05:02:59;;;;;;;49.35;17.13;;;;;;;4.46;100.00;101796.56;5038615;28;20087;-70
2021/11/16 05:05:26;;;;;;;49.08;18.48;;;;;;;4.45;100.00;101794.88;5040928;28;20041;-70
2021/11/16 05:07:58;;;;;;;57.92;19.15;;;;;;;4.47;100.00;101792.97;5037877;28;20038;-70
2021/11/16 05:10:28;;;;;;;66.45;22.55;;;;;;;4.48;100.00;101799.13;5038129;28;20056;-70
2021/11/16 05:12:56;;;;;;;52.08;18.33;;;;;;;4.54;100.00;101792.59;5044198;28;20045;-71
2021/11/16 05:15:25;;;;;;;50.03;17.88;;;;;;;4.55;100.00;101795.13;5040932;28;20512;-70
2021/11/16 05:17:54;;;;;;;55.83;18.38;;;;;;;4.52;100.00;101794.47;5040077;28;20433;-70
2021/11/16 05:20:23;;;;;;;53.08;19.25;;;;;;;4.56;100.00;101798.63;5042056;28;20053;-70
2021/11/16 05:22:53;;;;;;;51.00;17.65;;;;;;;4.59;100.00;101803.72;5041841;28;20099;-70
2021/11/16 05:25:21;;;;;;;51.30;19.02;;;;;;;4.54;100.00;101797.88;5040950;28;20057;-71
2021/11/16 05:27:50;;;;;;;53.00;18.80;;;;;;;4.53;100.00;101799.66;5037933;28;20056;-70
2021/11/16 05:30:26;;;;;;;42.40;16.10;;;;;;;4.63;100.00;101794.63;5043291;28;20095;-70
2021/11/16 05:32:54;;;;;;;;;;;;;;;4.55;100.00;101799.56;5040493;28;20052;-70
2021/11/16 05:35:22;;;;;;;52.83;18.00;;;;;;;4.45;100.00;101797.53;5040263;28;19928;-70
2021/11/16 05:37:50;;;;;;;52.63;19.60;;;;;;;4.47;100.00;101792.97;5038351;28;20034;-70
2021/11/16 05:40:18;;;;;;;63.40;21.70;;;;;;;4.46;100.00;101796.56;5043505;28;20054;-70
2021/11/16 05:42:46;;;;;;;54.25;20.52;;;;;;;4.50;100.00;101799.03;5037366;28;20096;-70
2021/11/16 05:45:15;;;;;;;61.80;20.60;;;;;;;4.52;100.00;101795.31;5037574;28;20049;-71
2021/11/16 05:47:43;;;;;;;52.65;19.48;;;;;;;4.52;100.00;101792.66;5039511;28;20263;-71
2021/11/16 05:50:12;;;;;;;53.25;17.45;;;;;;;4.71;100.00;101794.13;5037667;28;20108;-71
2021/11/16 05:52:40;;;;;;;44.15;17.60;;;;;;;4.91;100.00;101796.31;5039850;28;20377;-71
2021/11/16 05:55:09;;;;;;;56.00;19.60;;;;;;;4.92;100.00;101792.72;5040175;28;20036;-71
2021/11/16 05:57:37;;;;;;;49.55;18.27;;;;;;;4.82;100.00;101792.47;5039520;28;20041;-71
2021/11/16 06:00:08;;;;;;;49.80;20.05;;;;;;;4.87;100.00;101789.50;5041941;28;20045;-71
2021/11/16 06:02:38;;;;;;;51.33;17.30;;;;;;;4.58;100.00;101792.28;5035415;28;20045;-71
2021/11/16 06:05:06;;;;;;;60.85;20.92;;;;;;;4.48;100.00;101789.38;5036661;28;20057;-73
2021/11/16 06:07:35;;;;;;;61.28;19.80;;;;;;;4.49;100.00;101795.53;5039141;28;20037;-71
2021/11/16 06:10:04;;;;;;;58.75;20.65;;;;;;;4.50;100.00;101786.66;5038776;28;20337;-71
2021/11/16 06:12:32;;;;;;;67.15;21.13;;;;;;;4.53;100.00;101793.53;5037730;28;20049;-70
2021/11/16 06:15:00;;;;;;;59.95;21.45;;;;;;;4.56;100.00;101786.22;5040671;28;20107;-72
2021/11/16 06:17:27;;;;;;;63.10;22.95;;;;;;;4.52;100.00;101787.38;5035979;28;20049;-72
2021/11/16 06:19:58;;;;;;;61.25;22.63;;;;;;;4.57;100.00;101790.59;5042947;28;20060;-72
2021/11/16 06:22:26;;;;;;;58.28;20.75;;;;;;;4.58;100.00;101783.47;5038152;28;20440;-71
2021/11/16 06:24:54;;;;;;;61.75;20.42;;;;;;;4.63;100.00;101789.34;5039919;28;20037;-71
2021/11/16 06:27:22;;;;;;;59.80;22.50;;;;;;;4.57;100.00;101795.03;5039046;28;20041;-71
2021/11/16 06:29:50;;;;;;;65.55;22.30;;;;;;;4.61;100.00;101793.91;5038659;28;20332;-71
2021/11/16 06:32:18;;;;;;;64.25;22.58;;;;;;;4.60;100.00;101793.03;5041665;28;20061;-71
2021/11/16 06:34:46;;;;;;;64.70;21.33;;;;;;;4.56;100.00;101791.53;5036662;28;20383;-71
2021/11/16 06:37:15;;;;;;;63.47;23.70;;;;;;;4.49;100.00;101779.66;5041032;28;20052;-71
2021/11/16 06:39:43;;;;;;;58.13;21.90;;;;;;;4.46;100.00;101780.69;5042405;28;20056;-71
2021/11/16 06:42:13;;;;;;;61.30;19.48;;;;;;;4.56;100.00;101788.03;5040983;28;20090;-72
2021/11/16 06:44:42;;;;;;;68.40;21.88;;;;;;;4.62;100.00;101787.63;5039856;28;20060;-72
2021/11/16 06:47:12;;;;;;;57.83;21.95;;;;;;;4.60;100.00;101786.91;5033166;28;20045;-71
2021/11/16 06:49:41;;;;;;;51.72;21.13;;;;;;;4.68;100.00;101776.66;5042632;28;20045;-71
2021/11/16 06:52:10;;;;;;;60.42;20.63;;;;;;;4.71;100.00;101779.09;5040906;28;20053;-72
2021/11/16 06:54:39;;;;;;;55.03;21.42;;;;;;;4.67;100.00;101780.25;5037946;28;20069;-71
2021/11/16 06:57:07;;;;;;;53.53;19.40;;;;;;;4.86;100.00;101776.38;5034622;28;20325;-70
2021/11/16 06:59:36;;;;;;;58.40;19.65;;;;;;;4.85;100.00;101775.53;5038539;28;20403;-70
2021/11/16 07:02:05;;;;;;;49.40;18.83;;;;;;;4.92;100.00;101770.66;5044234;28;20048;-71
2021/11/16 07:04:39;;;;;;;50.08;20.40;;;;;;;5.08;100.00;101767.84;5042686;28;20041;-70
2021/11/16 07:07:07;;;;;;;56.25;20.10;;;;;;;5.11;100.00;101775.59;5043208;28;20045;-70
2021/11/16 07:09:37;;;;;;;50.60;18.92;;;;;;;4.97;100.00;101768.56;5045533;28;20048;-70
2021/11/16 07:12:12;;;;;;;41.45;17.33;;;;;;;5.04;100.00;101775.16;5043288;28;20447;-73
2021/11/16 07:14:41;;;;;;;46.42;17.75;;;;;;;5.13;100.00;101769.25;5045426;28;20048;-73
2021/11/16 07:17:10;;;;;;;51.53;18.75;;;;;;;5.07;100.00;101766.16;5041862;28;20044;-70
2021/11/16 07:19:40;;;;;;;49.38;19.02;;;;;;;5.07;100.00;101774.94;5045686;28;20396;-72
2021/11/16 07:22:11;;;;;;;39.05;16.15;;;;;;;5.05;100.00;101768.91;5043500;28;20506;-70
2021/11/16 07:24:44;;;;;;;49.63;18.05;;;;;;;5.04;100.00;101771.66;5039416;28;20045;-72
2021/11/16 07:27:16;;;;;;;44.15;15.88;;;;;;;4.86;100.00;101761.34;5044493;28;20345;-70
2021/11/16 07:29:46;;;;;;;49.20;19.92;;;;;;;4.80;100.00;101769.69;5041718;28;20049;-73
2021/11/16 07:32:17;;;;;;;58.33;18.77;;;;;;;4.78;100.00;101764.50;5043791;28;20368;-73
2021/11/16 07:34:45;;;;;;;43.10;15.80;;;;;;;5.07;100.00;101760.84;5043413;28;20048;-70
2021/11/16 07:37:15;;;;;;;42.38;15.77;;;;;;;5.12;100.00;101772.00;5040540;28;20244;-70
2021/11/16 07:39:52;;;;;;;49.22;19.00;;;;;;;5.03;100.00;101764.66;5045754;28;20049;-72
2021/11/16 07:42:24;;;;;;;49.13;17.08;;;;;;;4.95;100.00;101775.78;5044770;28;20140;-72
2021/11/16 07:45:07;;;;;;;46.42;16.45;;;;;;;4.83;100.00;101783.59;5044425;28;20037;-72
2021/11/16 07:47:41;;;;;;;46.42;18.45;;;;;;;4.75;100.00;101785.88;5038407;28;20046;-69
2021/11/16 07:50:11;;;;;;;50.17;17.10;;;;;;;4.87;100.00;101789.50;5043330;28;20053;-70
2021/11/16 07:52:39;;;;;;;52.17;17.88;;;;;;;4.95;100.00;101792.50;5042214;28;20037;-70
2021/11/16 07:55:08;;;;;;;45.75;17.95;;;;;;;4.94;100.00;101782.84;5042762;28;20288;-70
2021/11/16 07:57:44;;;;;;;51.40;18.55;;;;;;;4.88;100.00;101785.91;5039631;28;20045;-70
2021/11/16 08:00:16;;;;;;;45.08;16.45;;;;;;;4.85;100.00;101790.56;5044648;28;20040;-70
2021/11/16 08:02:46;;;;;;;47.10;17.33;;;;;;;4.98;100.00;101800.22;5038036;28;20056;-70
2021/11/16 08:05:23;;;;;;;40.92;17.38;;;;;;;4.92;100.00;101797.13;5041505;28;20045;-72
2021/11/16 08:08:10;;;;;;;40.90;15.55;;;;;;;4.89;100.00;101792.06;5041368;28;20072;-72
2021/11/16 08:10:40;;;;;;;56.60;18.30;;;;;;;4.90;100.00;101788.47;5044771;28;20127;-70
2021/11/16 08:13:15;;;;;;;45.45;17.25;;;;;;;4.91;100.00;101779.59;5046253;28;20119;-72
2021/11/16 08:15:43;;;;;;;48.00;19.20;;;;;;;4.88;100.00;101790.38;5041565;28;20041;-69
2021/11/16 08:18:14;;;;;;;46.88;17.70;;;;;;;4.62;100.00;101791.16;5039329;28;20042;-70
2021/11/16 08:20:43;;;;;;;58.50;18.77;;;;;;;4.67;100.00;101788.19;5046420;28;20048;-70
2021/11/16 08:23:11;;;;;;;48.40;15.75;;;;;;;4.71;100.00;101792.34;5044101;28;20368;-69
2021/11/16 08:25:39;;;;;;;45.78;15.27;;;;;;;4.71;100.00;101787.03;5047014;28;20048;-70
2021/11/16 08:28:11;;;;;;;46.78;17.75;;;;;;;4.77;100.00;101786.63;5042278;28;20416;-69
2021/11/16 08:30:39;;;;;;;46.97;15.70;;;;;;;5.05;100.00;101783.97;5042570;28;20048;-72
2021/11/16 08:33:07;;;;;;;55.95;16.45;;;;;;;5.19;100.00;101794.47;5042553;28;20083;-72
2021/11/16 08:35:35;;;;;;;45.45;15.82;;;;;;;5.10;100.00;101788.00;5041240;28;20041;-71
2021/11/16 08:38:05;;;;;;;49.58;18.00;;;;;;;5.05;100.00;101787.44;5044529;28;20053;-72
2021/11/16 08:40:36;;;;;;;48.63;16.10;;;;;;;4.94;100.00;101784.66;5043020;28;20060;-69
2021/11/16 08:43:11;;;;;;;49.53;16.30;;;;;;;5.04;100.00;101779.59;5043102;28;20056;-69
2021/11/16 08:45:45;;;;;;;42.33;15.13;;;;;;;5.09;100.00;101773.03;5043468;28;20040;-70
2021/11/16 08:48:17;;;;;;;43.50;15.63;;;;;;;5.21;100.00;101771.34;5039569;28;20078;-72
2021/11/16 08:50:47;;;;;;;43.70;15.60;;;;;;;5.35;100.00;101773.06;5044075;28;20051;-71
2021/11/16 08:53:18;;;;;;;51.38;16.20;;;;;;;5.08;100.00;101774.00;5043533;28;20384;-71
2021/11/16 08:55:47;;;;;;;49.17;17.20;;;;;;;5.05;100.00;101766.25;5040780;28;20110;-71
2021/11/16 08:58:17;;;;;;;43.33;16.23;;;;;;;5.25;100.00;101767.53;5038827;28;20380;-71
2021/11/16 09:00:48;;;;;;;39.97;17.65;;;;;;;5.39;100.00;101763.94;5039565;28;20449;-71
2021/11/16 09:03:19;;;;;;;47.45;17.45;;;;;;;5.59;100.00;101761.72;5043557;28;20441;-70
2021/11/16 09:05:49;;;;;;;41.53;16.25;;;;;;;5.43;100.00;101761.91;5042313;28;20460;-70
2021/11/16 09:08:20;;;;;;;41.10;16.02;;;;;;;5.49;100.00;101757.06;5044735;28;20052;-72
2021/11/16 09:10:50;;;;;;;40.90;14.40;;;;;;;5.54;100.00;101755.88;5044316;28;20041;-71
2021/11/16 09:13:20;;;;;;;39.92;14.85;;;;;;;5.41;100.00;101748.78;5041663;28;20045;-71
2021/11/16 09:15:55;;;;;;;41.22;15.75;;;;;;;5.60;100.00;101752.78;5043960;28;20042;-71
2021/11/16 09:18:26;;;;;;;38.00;14.73;;;;;;;5.51;100.00;101744.56;5036276;28;20163;-70
2021/11/16 09:20:59;;;;;;;44.15;15.43;;;;;;;5.41;100.00;101742.66;5039549;28;20071;-71
2021/11/16 09:23:31;;;;;;;37.80;15.43;;;;;;;5.50;100.00;101742.84;5042153;28;20050;-71
2021/11/16 09:26:14;;;;;;;36.47;14.65;;;;;;;5.57;100.00;101737.13;5037773;28;20060;-71
2021/11/16 09:28:47;;;;;;;34.90;14.23;;;;;;;5.40;100.00;101733.00;5036536;28;20053;-71
2021/11/16 09:31:23;;;;;;;43.92;15.15;;;;;;;5.30;100.00;101730.13;5042390;28;20053;-71
2021/11/16 09:33:51;;;;;;;42.55;15.50;;;;;;;5.16;100.00;101736.41;5038840;28;20141;-71
2021/11/16 09:36:21;;;;;;;43.00;17.05;;;;;;;5.02;100.00;101739.13;5041469;28;20037;-71
2021/11/16 09:38:53;;;;;;;44.22;17.20;;;;;;;4.92;100.00;101737.13;5035716;28;20244;-71
2021/11/16 09:41:30;;;;;;;41.80;15.98;;;;;;;5.07;100.00;101737.03;5044060;28;20063;-71
2021/11/16 09:44:00;;;;;;;52.72;18.63;;;;;;;5.32;100.00;101741.50;5041642;28;20094;-71
2021/11/16 09:46:29;;;;;;;47.53;17.58;;;;;;;5.50;100.00;101737.56;5042125;28;20042;-71
2021/11/16 09:48:59;;;;;;;40.55;16.08;;;;;;;5.24;100.00;101733.22;5041457;28;20132;-71
2021/11/16 09:51:27;;;;;;;43.67;17.85;;;;;;;5.51;100.00;101738.41;5041636;28;20041;-71
2021/11/16 09:54:06;;;;;;;45.28;17.80;;;;;;;5.75;100.00;101741.13;5044589;28;20041;-71
2021/11/16 09:56:35;;;;;;;50.72;16.92;;;;;;;5.90;100.00;101731.22;5040864;28;20314;-71
2021/11/16 09:59:03;;;;;;;39.88;14.88;;;;;;;5.94;100.00;101721.22;5039382;28;20049;-71
2021/11/16 10:01:35;;;;;;;40.58;16.17;;;;;;;5.76;100.00;101729.56;5045221;28;20048;-71
2021/11/16 10:04:09;;;;;;;42.10;15.13;;;;;;;5.66;100.00;101733.84;5038430;28;20136;-71
2021/11/16 10:06:38;;;;;;;39.20;14.50;;;;;;;5.74;100.00;101736.78;5040328;28;20040;-71
2021/11/16 10:09:07;;;;;;;43.50;16.02;;;;;;;5.64;100.00;101733.06;5040196;28;20306;-71
2021/11/16 10:11:40;;;;;;;42.33;14.82;;;;;;;5.59;100.00;101727.28;5039298;28;20046;-71
2021/11/16 10:14:13;;;;;;;42.33;16.48;;;;;;;5.81;100.00;101730.09;5042264;28;20045;-71
2021/11/16 10:16:43;;;;;;;45.78;16.55;;;;;;;5.95;100.00;101734.38;5040052;28;20345;-70
2021/11/16 10:19:31;;;;;;;42.95;15.80;;;;;;;5.52;100.00;101722.38;5037794;28;20110;-70
2021/11/16 10:21:59;;;;;;;40.17;13.20;;;;;;;5.36;100.00;101724.44;5043506;28;20171;-70
2021/11/16 10:24:31;;;;;;;44.28;16.58;;;;;;;5.31;100.00;101729.19;5040516;28;20467;-70
2021/11/16 10:27:02;;;;;;;46.90;15.60;;;;;;;5.42;100.00;101726.66;5042701;28;20180;-70
2021/11/16 10:29:30;;;;;;;43.47;16.25;;;;;;;5.48;100.00;101718.25;5040750;28;20041;-70
2021/11/16 10:32:18;;;;;;;44.78;16.38;;;;;;;5.59;100.00;101719.31;5036756;28;20456;-70
2021/11/16 10:34:46;;;;;;;40.83;17.02;;;;;;;5.49;100.00;101719.97;5042514;28;20365;-70
2021/11/16 10:37:14;;;;;;;44.63;16.85;;;;;;;5.31;100.00;101718.59;5037630;28;20055;-70
2021/11/16 10:39:42;;;;;;;38.90;15.68;;;;;;;5.40;100.00;101717.97;5041973;28;20050;-71
2021/11/16 10:42:16;;;;;;;44.42;17.08;;;;;;;5.59;100.00;101716.66;5042290;28;20045;-70
2021/11/16 10:44:58;;;;;;;42.47;15.80;;;;;;;5.27;100.00;101722.41;5039955;28;20046;-70
2021/11/16 10:47:35;;;;;;;41.65;15.25;;;;;;;5.04;100.00;101719.53;5036887;28;20045;-71
2021/11/16 10:50:10;;;;;;;46.22;15.50;;;;;;;5.05;100.00;101715.94;5040637;28;20041;-71
2021/11/16 10:52:38;;;;;;;44.83;16.03;;;;;;;5.40;100.00;101717.97;5042074;28;20045;-70
2021/11/16 10:55:07;;;;;;;52.25;17.10;;;;;;;5.60;100.00;101702.44;5043276;28;20045;-71
2021/11/16 10:57:56;;;;;;;43.85;15.55;;;;;;;5.56;100.00;101706.25;5036914;28;20033;-71
2021/11/16 11:00:36;;;;;;;36.08;14.85;;;;;;;5.25;100.00;101695.19;5042911;28;20091;-71
2021/11/16 11:03:17;;;;;;;44.88;15.20;;;;;;;5.30;100.00;101696.56;5037725;28;20099;-71
2021/11/16 11:05:45;;;;;;;43.03;15.30;;;;;;;5.55;100.00;101694.00;5038694;28;20041;-71
2021/11/16 11:08:31;;;;;;;41.50;15.20;;;;;;;5.76;100.00;101697.75;5040468;28;20052;-71
2021/11/16 11:11:00;;;;;;;44.78;17.08;;;;;;;5.93;100.00;101693.06;5041473;28;20045;-71
2021/11/16 11:13:29;;;;;;;45.97;16.55;;;;;;;6.06;100.00;101685.09;5039076;28;20044;-70
2021/11/16 11:15:58;;;;;;;42.38;16.63;;;;;;;5.89;100.00;101692.41;5044319;28;20083;-71
2021/11/16 11:18:37;;;;;;;50.97;17.48;;;;;;;5.61;100.00;101693.53;5038410;28;20037;-71
2021/11/16 11:21:07;;;;;;;46.85;18.42;;;;;;;5.51;100.00;101688.91;5045238;28;20053;-71
2021/11/16 11:23:45;;;;;;;48.85;17.50;;;;;;;5.37;100.00;101689.03;5039751;28;20334;-70
2021/11/16 11:26:22;;;;;;;45.25;16.67;;;;;;;5.66;100.00;101680.81;5035935;28;20103;-71
2021/11/16 11:29:13;;;;;;;47.25;18.70;;;;;;;5.86;100.00;101679.38;5037862;28;20045;-71
2021/11/16 11:31:43;;;;;;;43.97;18.17;;;;;;;5.86;100.00;101672.28;5037263;28;20052;-71